Menu Close Menu
Station Historical Data
Daily Summary for January 14, 2017 Units:  Metric    English   Both
« Previous Day
Next Day »
Daily Weekly Monthly Yearly Custom
  High: Low: Average:
Temperature: 23.4 °C 12.2 °C 16 °C
Dew Point: 15.9 °C 10.3 °C 12.1 °C
Humidity: 94% 56% 79%
Wind Speed: 16.7km/h 16.7km/h 16.7km/h
Wind Gust: 16.7km/h - -
Wind- - SE
Pressure: 1032.7 hPa 1028 hPa -
Precipitation: 0 mm    
Historical Graphs
 
 
Tabular Data for January 14, 2017
Time Temperature Dew Point Pressure Wind Wind Speed Wind Gust Humidity Rainfall Rate (Hourly) solar Conditions
00:05 13.4 °C 11.9 °C 1032.1 hPa SSE 16.7 km/h   91% 0 mm 0.0 W/m2
00:10 13.4 °C 11.9 °C 1032.1 hPa SSE 16.7 km/h   91% 0 mm 0.0 W/m2
00:20 13.3 °C 11.8 °C 1031.7 hPa SSE 16.7 km/h   91% 0 mm 0.0 W/m2
00:25 13.2 °C 11.8 °C 1031.7 hPa SSE 16.7 km/h   91% 0 mm 0.0 W/m2
00:30 13.4 °C 12.1 °C 1031.7 hPa SSE 16.7 km/h   92% 0 mm 0.0 W/m2
00:35 13.6 °C 12.3 °C 1031.7 hPa SSE 16.7 km/h   92% 0 mm 0.0 W/m2
00:40 13.6 °C 12.3 °C 1031.7 hPa SSE 16.7 km/h   92% 0 mm 0.0 W/m2
00:45 13.4 °C 11.9 °C 1031.7 hPa SSE 16.7 km/h   91% 0 mm 0.0 W/m2
00:50 13.2 °C 11.7 °C 1031.7 hPa SSE 16.7 km/h   91% 0 mm 0.0 W/m2
00:55 13 °C 11.6 °C 1031.7 hPa SSE 16.7 km/h   91% 0 mm 0.0 W/m2
01:01 12.8 °C 11.4 °C 1031.7 hPa SSE 16.7 km/h   91% 0 mm 0.0 W/m2
01:06 12.7 °C 11.3 °C 1031.7 hPa SSE 16.7 km/h   91% 0 mm 0.0 W/m2
01:11 12.7 °C 11.3 °C 1031.7 hPa SSE 16.7 km/h   91% 0 mm 0.0 W/m2
01:16 12.7 °C 11.2 °C 1031.7 hPa SSE 16.7 km/h   91% 0 mm 0.0 W/m2
01:21 12.2 °C 10.8 °C 1031.7 hPa SSE 16.7 km/h   91% 0 mm 0.0 W/m2
01:26 12.2 °C 10.8 °C 1031.7 hPa SSE 16.7 km/h   91% 0 mm 0.0 W/m2
01:31 12.2 °C 10.8 °C 1031.7 hPa North 16.7 km/h   91% 0 mm 0.0 W/m2
01:36 12.2 °C 10.8 °C 1031.7 hPa North 16.7 km/h   91% 0 mm 0.0 W/m2
01:41 12.2 °C 10.8 °C 1031.7 hPa North 16.7 km/h   91% 0 mm 0.0 W/m2
01:46 12.2 °C 10.8 °C 1031.7 hPa North 16.7 km/h   91% 0 mm 0.0 W/m2
01:51 12.2 °C 10.8 °C 1031.7 hPa North 16.7 km/h   91% 0 mm 0.0 W/m2
01:57 12.2 °C 10.8 °C 1031.7 hPa North 16.7 km/h   91% 0 mm 0.0 W/m2
02:02 12.2 °C 10.8 °C 1031.7 hPa North 16.7 km/h   91% 0 mm 0.0 W/m2
02:07 12.2 °C 10.8 °C 1031.7 hPa North 16.7 km/h   91% 0 mm 0.0 W/m2
02:12 12.2 °C 10.8 °C 1031.7 hPa North 16.7 km/h   91% 0 mm 0.0 W/m2
02:17 12.2 °C 10.8 °C 1031.7 hPa North 16.7 km/h   91% 0 mm 0.0 W/m2
02:22 12.2 °C 10.8 °C 1031.7 hPa North 16.7 km/h   91% 0 mm 0.0 W/m2
02:27 12.2 °C 10.8 °C 1031.7 hPa North 16.7 km/h   91% 0 mm 0.0 W/m2
02:32 12.2 °C 10.8 °C 1031.7 hPa North 16.7 km/h   91% 0 mm 0.0 W/m2
02:37 12.2 °C 10.8 °C 1031.7 hPa North 16.7 km/h   91% 0 mm 0.0 W/m2
02:42 12.2 °C 10.8 °C 1031.7 hPa North 16.7 km/h   91% 0 mm 0.0 W/m2
02:47 12.2 °C 10.8 °C 1031.7 hPa North 16.7 km/h   91% 0 mm 0.0 W/m2
02:52 12.2 °C 10.8 °C 1031.7 hPa North 16.7 km/h   91% 0 mm 0.0 W/m2
02:57 12.2 °C 10.8 °C 1031.7 hPa North 16.7 km/h   91% 0 mm 0.0 W/m2
03:02 12.2 °C 10.8 °C 1031.7 hPa North 16.7 km/h   91% 0 mm 0.0 W/m2
03:07 12.2 °C 10.8 °C 1031.7 hPa North 16.7 km/h   91% 0 mm 0.0 W/m2
03:13 12.2 °C 10.8 °C 1031.7 hPa North 16.7 km/h   91% 0 mm 0.0 W/m2
03:18 12.2 °C 10.8 °C 1031.7 hPa North 16.7 km/h   91% 0 mm 0.0 W/m2
03:23 12.2 °C 10.8 °C 1031.7 hPa North 16.7 km/h   91% 0 mm 0.0 W/m2
03:28 12.2 °C 10.8 °C 1031.7 hPa North 16.7 km/h   91% 0 mm 0.0 W/m2
03:33 12.2 °C 10.8 °C 1031.7 hPa North 16.7 km/h   91% 0 mm 0.0 W/m2
03:38 12.2 °C 10.8 °C 1031.4 hPa North 16.7 km/h   91% 0 mm 0.0 W/m2
03:43 12.2 °C 10.8 °C 1031.4 hPa North 16.7 km/h   91% 0 mm 0.0 W/m2
03:48 12.2 °C 10.8 °C 1031.7 hPa North 16.7 km/h   91% 0 mm 0.0 W/m2
03:53 12.2 °C 10.8 °C 1031.7 hPa North 16.7 km/h   91% 0 mm 0.0 W/m2
03:58 12.2 °C 10.8 °C 1031.4 hPa North 16.7 km/h   91% 0 mm 0.0 W/m2
04:03 12.2 °C 10.8 °C 1031.4 hPa North 16.7 km/h   91% 0 mm 0.0 W/m2
04:08 12.2 °C 10.8 °C 1031.4 hPa North 16.7 km/h   91% 0 mm 0.0 W/m2
04:13 12.2 °C 10.8 °C 1031.4 hPa North 16.7 km/h   91% 0 mm 0.0 W/m2
04:18 12.2 °C 10.8 °C 1031.4 hPa North 16.7 km/h   91% 0 mm 0.0 W/m2
04:23 12.2 °C 10.8 °C 1031.4 hPa North 16.7 km/h   91% 0 mm 0.0 W/m2
04:29 12.2 °C 10.8 °C 1031.4 hPa North 16.7 km/h   91% 0 mm 0.0 W/m2
04:34 12.2 °C 10.8 °C 1031.4 hPa North 16.7 km/h   91% 0 mm 0.0 W/m2
04:39 12.2 °C 10.8 °C 1031.4 hPa North 16.7 km/h   91% 0 mm 0.0 W/m2
04:44 12.2 °C 10.8 °C 1031.4 hPa North 16.7 km/h   91% 0 mm 0.0 W/m2
04:49 12.2 °C 10.8 °C 1031.4 hPa North 16.7 km/h   91% 0 mm 0.0 W/m2
04:54 12.2 °C 10.8 °C 1031.4 hPa North 16.7 km/h   91% 0 mm 0.0 W/m2
04:59 12.2 °C 10.8 °C 1031.4 hPa North 16.7 km/h   91% 0 mm 0.0 W/m2
05:04 12.2 °C 10.8 °C 1031.4 hPa North 16.7 km/h   91% 0 mm 0.0 W/m2
05:09 12.2 °C 10.8 °C 1031.4 hPa North 16.7 km/h   91% 0 mm 0.0 W/m2
05:14 12.2 °C 10.8 °C 1031.4 hPa North 16.7 km/h   91% 0 mm 0.0 W/m2
05:19 12.2 °C 10.8 °C 1031.4 hPa North 16.7 km/h   91% 0 mm 0.0 W/m2
05:25 12.2 °C 10.8 °C 1031.4 hPa North 16.7 km/h   91% 0 mm 0.0 W/m2
05:30 12.2 °C 10.8 °C 1031.4 hPa North 16.7 km/h   91% 0 mm 0.0 W/m2
05:35 12.2 °C 10.8 °C 1031.4 hPa North 16.7 km/h   91% 0 mm 0.0 W/m2
05:40 12.2 °C 10.8 °C 1031.4 hPa North 16.7 km/h   91% 0 mm 0.0 W/m2
05:45 12.2 °C 10.8 °C 1031.4 hPa North 16.7 km/h   91% 0 mm 0.0 W/m2
05:50 12.2 °C 10.8 °C 1031.4 hPa North 16.7 km/h   91% 0 mm 0.0 W/m2
05:55 12.2 °C 10.8 °C 1031.4 hPa North 16.7 km/h   91% 0 mm 0.0 W/m2
06:00 12.2 °C 10.8 °C 1031.4 hPa North 16.7 km/h   91% 0 mm 0.0 W/m2
06:05 12.2 °C 10.8 °C 1031.4 hPa North 16.7 km/h   91% 0 mm 0.0 W/m2
06:10 12.2 °C 10.8 °C 1031.4 hPa North 16.7 km/h   91% 0 mm 0.0 W/m2
06:15 12.2 °C 10.8 °C 1031.4 hPa North 16.7 km/h   91% 0 mm 0.0 W/m2
06:20 12.2 °C 10.8 °C 1031.4 hPa North 16.7 km/h   91% 0 mm 0.0 W/m2
06:25 12.2 °C 10.8 °C 1031.4 hPa North 16.7 km/h   91% 0 mm 0.0 W/m2
06:31 12.2 °C 10.8 °C 1031.7 hPa North 16.7 km/h   91% 0 mm 0.0 W/m2
06:36 12.2 °C 10.8 °C 1031.7 hPa North 16.7 km/h   91% 0 mm 0.0 W/m2
06:41 12.2 °C 10.8 °C 1031.7 hPa North 16.7 km/h   91% 0 mm 0.0 W/m2
06:46 12.2 °C 10.8 °C 1031.4 hPa North 16.7 km/h   91% 0 mm 0.0 W/m2
06:51 12.2 °C 10.8 °C 1031.7 hPa North 16.7 km/h   91% 0 mm 0.0 W/m2
06:56 12.2 °C 10.8 °C 1031.7 hPa North 16.7 km/h   91% 0 mm 0.0 W/m2
07:01 12.2 °C 10.8 °C 1031.7 hPa North 16.7 km/h   91% 0 mm 0.0 W/m2
07:06 12.2 °C 10.8 °C 1031.7 hPa North 16.7 km/h   91% 0 mm 0.0 W/m2
07:11 12.2 °C 10.8 °C 1031.7 hPa North 16.7 km/h   91% 0 mm 0.0 W/m2
07:16 12.2 °C 10.8 °C 1031.7 hPa North 16.7 km/h   91% 0 mm 0.0 W/m2 CLR
07:21 12.2 °C 10.8 °C 1031.7 hPa North 16.7 km/h   91% 0 mm 0.0 W/m2 CLR
07:26 12.2 °C 10.8 °C 1032.1 hPa North 16.7 km/h   91% 0 mm 0.0 W/m2 CLR
07:32 12.2 °C 10.8 °C 1032.1 hPa North 16.7 km/h   91% 0 mm 0.0 W/m2 CLR
07:37 12.2 °C 10.8 °C 1032.1 hPa North 16.7 km/h   91% 0 mm 0.0 W/m2 CLR
07:42 12.2 °C 10.8 °C 1032.1 hPa North 16.7 km/h   91% 0 mm 0.0 W/m2 CLR
07:47 12.2 °C 10.8 °C 1032.1 hPa North 16.7 km/h   91% 0 mm 0.0 W/m2 CLR
07:52 12.2 °C 10.8 °C 1032.1 hPa North 16.7 km/h   91% 0 mm 0.0 W/m2 CLR
07:57 12.2 °C 10.8 °C 1032.1 hPa North 16.7 km/h   91% 0 mm 0.0 W/m2 CLR
08:02 12.2 °C 10.8 °C 1032.1 hPa North 16.7 km/h   91% 0 mm 0.0 W/m2 CLR
08:07 12.2 °C 10.8 °C 1032.1 hPa North 16.7 km/h   91% 0 mm 0.0 W/m2 CLR
08:12 12.2 °C 10.8 °C 1032.1 hPa North 16.7 km/h   91% 0 mm 0.0 W/m2 CLR
08:17 12.2 °C 10.8 °C 1032.1 hPa North 16.7 km/h   91% 0 mm 0.0 W/m2 CLR
08:23 12.2 °C 10.8 °C 1032.1 hPa North 16.7 km/h   91% 0 mm 0.0 W/m2 CLR
08:28 12.2 °C 10.8 °C 1032.1 hPa North 16.7 km/h   91% 0 mm 0.0 W/m2 CLR
08:33 12.2 °C 10.8 °C 1032.1 hPa North 16.7 km/h   91% 0 mm 0.0 W/m2 CLR
08:38 12.2 °C 10.8 °C 1032.4 hPa North 16.7 km/h   91% 0 mm 0.0 W/m2 CLR
08:43 12.2 °C 10.8 °C 1032.4 hPa North 16.7 km/h   91% 0 mm 0.0 W/m2 CLR
08:48 12.2 °C 10.8 °C 1032.4 hPa North 16.7 km/h   91% 0 mm 0.0 W/m2 CLR
08:53 12.2 °C 10.8 °C 1032.4 hPa North 16.7 km/h   91% 0 mm 0.0 W/m2 CLR
08:58 12.2 °C 10.8 °C 1032.4 hPa North 16.7 km/h   91% 0 mm 0.0 W/m2 CLR
09:03 12.2 °C 10.8 °C 1032.4 hPa North 16.7 km/h   91% 0 mm 0.0 W/m2 OVC
09:08 12.2 °C 10.8 °C 1032.4 hPa North 16.7 km/h   91% 0 mm 0.0 W/m2 OVC
09:13 12.2 °C 10.8 °C 1032.4 hPa North 16.7 km/h   91% 0 mm 0.0 W/m2 OVC
09:18 13.1 °C 12.2 °C 1032.4 hPa SSE 16.7 km/h   94% 0 mm 0.0 W/m2 OVC
09:23 13.3 °C 12.3 °C 1032.4 hPa SSE 16.7 km/h   94% 0 mm 0.0 W/m2 OVC
09:28 13.4 °C 12.5 °C 1032.4 hPa SSE 16.7 km/h   94% 0 mm 0.0 W/m2 OVC
09:33 13.5 °C 12.6 °C 1032.4 hPa SSE 16.7 km/h   94% 0 mm 0.0 W/m2 OVC
09:38 13.7 °C 12.7 °C 1032.4 hPa SSE 16.7 km/h   94% 0 mm 0.0 W/m2 OVC
09:43 13.9 °C 12.9 °C 1032.4 hPa SSE 16.7 km/h   94% 0 mm 0.0 W/m2 OVC
09:49 14 °C 13.1 °C 1032.4 hPa SSE 16.7 km/h   94% 0 mm 0.0 W/m2 OVC
09:54 14.3 °C 13.3 °C 1032.7 hPa SSE 16.7 km/h   94% 0 mm 0.0 W/m2 OVC
09:59 14.5 °C 13.6 °C 1032.7 hPa SSE 16.7 km/h   94% 0 mm 0.0 W/m2 OVC
10:04 14.7 °C 13.7 °C 1032.4 hPa SSE 16.7 km/h   94% 0 mm 0.0 W/m2 OVC
10:09 14.9 °C 14 °C 1032.4 hPa SSE 16.7 km/h   94% 0 mm 0.0 W/m2 OVC
10:14 15.2 °C 14.3 °C 1032.7 hPa SSE 16.7 km/h   94% 0 mm 0.0 W/m2 OVC
10:19 15.6 °C 14.6 °C 1032.7 hPa SSE 16.7 km/h   94% 0 mm 0.0 W/m2 OVC
10:24 15.9 °C 15 °C 1032.4 hPa SSE 16.7 km/h   94% 0 mm 0.0 W/m2 OVC
10:29 16.3 °C 15.2 °C 1032.4 hPa West 16.7 km/h   93% 0 mm 0.0 W/m2 OVC
10:34 16.6 °C 15.3 °C 1032.4 hPa West 16.7 km/h   92% 0 mm 0.0 W/m2 OVC
10:39 17.2 °C 15.6 °C 1032.4 hPa West 16.7 km/h   90% 0 mm 0.0 W/m2 OVC
10:44 17.7 °C 15.5 °C 1032.4 hPa West 16.7 km/h   87% 0 mm 0.0 W/m2 OVC
10:49 17.9 °C 15.3 °C 1032.4 hPa West 16.7 km/h   85% 0 mm 0.0 W/m2 OVC
10:54 18.1 °C 15.3 °C 1032.4 hPa West 16.7 km/h   84% 0 mm 0.0 W/m2 OVC
10:59 18.4 °C 15.5 °C 1032.4 hPa West 16.7 km/h   83% 0 mm 0.0 W/m2 OVC
11:04 19.4 °C 15.4 °C 1032.4 hPa WNW 16.7 km/h   78% 0 mm 0.0 W/m2 OVC
11:09 20.3 °C 15.5 °C 1032.4 hPa East 16.7 km/h 16.7 km/h 74% 0 mm 0.0 W/m2 OVC
11:14 20.6 °C 15.1 °C 1032.1 hPa SW 16.7 km/h 16.7 km/h 71% 0 mm 0.0 W/m2 OVC
11:19 20.9 °C 15.7 °C 1032.1 hPa NW 16.7 km/h 16.7 km/h 72% 0 mm 0.0 W/m2 OVC
11:25 21.6 °C 15.9 °C 1032.1 hPa ENE 16.7 km/h 16.7 km/h 70% 0 mm 0.0 W/m2 OVC
11:30 21.8 °C 15.4 °C 1032.1 hPa North 16.7 km/h 16.7 km/h 67% 0 mm 0.0 W/m2 OVC
11:35 22 °C 15.3 °C 1032.1 hPa SE 16.7 km/h 16.7 km/h 66% 0 mm 0.0 W/m2 OVC
11:40 22.2 °C 15.6 °C 1031.7 hPa ENE 16.7 km/h 16.7 km/h 66% 0 mm 0.0 W/m2 OVC
11:45 22.4 °C 15.2 °C 1031.7 hPa NE 16.7 km/h 16.7 km/h 64% 0 mm 0.0 W/m2 OVC
11:50 22.4 °C 15.2 °C 1031.7 hPa ENE 16.7 km/h 16.7 km/h 64% 0 mm 0.0 W/m2 OVC
11:55 22.5 °C 15.3 °C 1031.7 hPa ENE 16.7 km/h   64% 0 mm 0.0 W/m2 OVC
12:00 22.3 °C 15.2 °C 1031.4 hPa East 16.7 km/h   64% 0 mm 0.0 W/m2 OVC
12:05 21.9 °C 15.1 °C 1031.4 hPa South 16.7 km/h   65% 0 mm 0.0 W/m2 OVC
12:10 21.7 °C 14.8 °C 1031.4 hPa ENE 16.7 km/h   65% 0 mm 0.0 W/m2 OVC
12:15 21.5 °C 15.1 °C 1031 hPa SSE 16.7 km/h   67% 0 mm 0.0 W/m2 OVC
12:20 21.4 °C 15 °C 1031 hPa SSE 16.7 km/h   67% 0 mm 0.0 W/m2 OVC
12:25 21.4 °C 15 °C 1031 hPa SSE 16.7 km/h   67% 0 mm 0.0 W/m2 OVC
12:30 21.4 °C 15.1 °C 1030.7 hPa SSE 16.7 km/h   67% 0 mm 0.0 W/m2 OVC
12:35 21.6 °C 14.7 °C 1030.7 hPa SSE 16.7 km/h 16.7 km/h 65% 0 mm 0.0 W/m2 OVC
12:40 21.8 °C 14.7 °C 1030.7 hPa SSW 16.7 km/h 16.7 km/h 64% 0 mm 0.0 W/m2 OVC
12:45 22.1 °C 14.4 °C 1030.4 hPa SW 16.7 km/h 16.7 km/h 62% 0 mm 0.0 W/m2 OVC
12:50 22.4 °C 14.7 °C 1030.4 hPa NW 16.7 km/h   62% 0 mm 0.0 W/m2 OVC
12:56 23.1 °C 14.9 °C 1030 hPa NW 16.7 km/h   60% 0 mm 0.0 W/m2 OVC
13:01 23.2 °C 14.9 °C 1030 hPa NW 16.7 km/h   60% 0 mm 0.0 W/m2 OVC
13:06 23.2 °C 14.7 °C 1030 hPa West 16.7 km/h   59% 0 mm 0.0 W/m2 OVC
13:11 23.4 °C 14.4 °C 1029.7 hPa North 16.7 km/h   57% 0 mm 0.0 W/m2 OVC
13:16 23.3 °C 14.3 °C 1029.7 hPa North 16.7 km/h   57% 0 mm 0.0 W/m2 OVC
13:21 22.8 °C 14.1 °C 1029.7 hPa North 16.7 km/h   58% 0 mm 0.0 W/m2 OVC
13:26 22.6 °C 14.2 °C 1029.7 hPa East 16.7 km/h 16.7 km/h 59% 0 mm 0.0 W/m2 OVC
13:31 22.3 °C 14.1 °C 1029.7 hPa ENE 16.7 km/h   60% 0 mm 0.0 W/m2 OVC
13:36 22 °C 13.9 °C 1029.7 hPa ESE 16.7 km/h   60% 0 mm 0.0 W/m2 OVC
13:41 21.9 °C 14 °C 1029.3 hPa SSE 16.7 km/h 16.7 km/h 61% 0 mm 0.0 W/m2 OVC
13:46 21.7 °C 14.1 °C 1029.3 hPa West 16.7 km/h   62% 0 mm 0.0 W/m2 OVC
13:51 21.7 °C 13.8 °C 1029.3 hPa West 16.7 km/h   61% 0 mm 0.0 W/m2 OVC
13:56 21.6 °C 13.8 °C 1029.3 hPa WSW 16.7 km/h   61% 0 mm 0.0 W/m2 OVC
14:01 21.7 °C 13.8 °C 1029 hPa NW 16.7 km/h   61% 0 mm 0.0 W/m2 OVC
14:06 21.8 °C 13.9 °C 1029 hPa NW 16.7 km/h   61% 0 mm 0.0 W/m2 OVC
14:12 21.8 °C 13.7 °C 1029 hPa WNW 16.7 km/h 16.7 km/h 60% 0 mm 0.0 W/m2 OVC
14:17 21.9 °C 13.8 °C 1029 hPa East 16.7 km/h 16.7 km/h 60% 0 mm 0.0 W/m2 OVC
14:22 21.8 °C 13.9 °C 1029 hPa SW 16.7 km/h 16.7 km/h 61% 0 mm 0.0 W/m2 OVC
14:27 21.7 °C 13.8 °C 1029 hPa SW 16.7 km/h   61% 0 mm 0.0 W/m2 OVC
14:32 21.7 °C 14.1 °C 1029 hPa WSW 16.7 km/h   62% 0 mm 0.0 W/m2 OVC
14:37 21.6 °C 14 °C 1029 hPa WSW 16.7 km/h   62% 0 mm 0.0 W/m2 OVC
14:42 21.4 °C 13.3 °C 1029 hPa SW 16.7 km/h   60% 0 mm 0.0 W/m2 OVC
14:47 21.4 °C 13.8 °C 1029 hPa SW 16.7 km/h   62% 0 mm 0.0 W/m2 OVC
14:52 21.2 °C 13.4 °C 1028.7 hPa SW 16.7 km/h   61% 0 mm 0.0 W/m2 OVC
14:57 21.2 °C 13.6 °C 1028.7 hPa SW 16.7 km/h   62% 0 mm 0.0 W/m2 OVC
15:02 21.3 °C 13.9 °C 1028.7 hPa SW 16.7 km/h   63% 0 mm 0.0 W/m2 OVC
15:07 21.4 °C 13.8 °C 1028.7 hPa SW 16.7 km/h   62% 0 mm 0.0 W/m2 OVC
15:12 21.7 °C 13.1 °C 1028.7 hPa SW 16.7 km/h   58% 0 mm 0.0 W/m2 OVC
15:17 21.8 °C 12.9 °C 1028.7 hPa SW 16.7 km/h   57% 0 mm 0.0 W/m2 OVC
15:22 21.8 °C 12.9 °C 1028.7 hPa NNE 16.7 km/h 16.7 km/h 57% 0 mm 0.0 W/m2 OVC
15:28 21.8 °C 12.9 °C 1028.7 hPa NNE 16.7 km/h   57% 0 mm 0.0 W/m2 OVC
15:33 21.8 °C 13.2 °C 1028.7 hPa NNE 16.7 km/h   58% 0 mm 0.0 W/m2 OVC
15:38 21.9 °C 12.7 °C 1028.7 hPa NNE 16.7 km/h 16.7 km/h 56% 0 mm 0.0 W/m2 OVC
15:40 21.8 °C 12.7 °C 1028.7 hPa NNE 16.7 km/h   56% 0 mm 0.0 W/m2 OVC
15:45 21.8 °C 12.9 °C 1028.7 hPa NNE 16.7 km/h   57% 0 mm 0.0 W/m2 OVC
15:50 21.8 °C 13.2 °C 1028.7 hPa NNE 16.7 km/h   58% 0 mm 0.0 W/m2 OVC
15:55 21.8 °C 13.2 °C 1028.7 hPa NNE 16.7 km/h   58% 0 mm 0.0 W/m2 OVC
16:00 21.8 °C 13.7 °C 1028.3 hPa NNE 16.7 km/h   60% 0 mm 0.0 W/m2 CLR
16:05 21.7 °C 13.3 °C 1028.3 hPa NNE 16.7 km/h   59% 0 mm 0.0 W/m2 CLR
16:10 21.7 °C 13.3 °C 1028.7 hPa NNE 16.7 km/h   59% 0 mm 0.0 W/m2 CLR
16:16 21.6 °C 13.7 °C 1028.7 hPa NNE 16.7 km/h   61% 0 mm 0.0 W/m2 CLR
16:21 21.5 °C 13.9 °C 1028.7 hPa NNE 16.7 km/h   62% 0 mm 0.0 W/m2 CLR
16:26 21.5 °C 13.7 °C 1028.7 hPa NNE 16.7 km/h   61% 0 mm 0.0 W/m2 CLR
16:31 21.4 °C 13.1 °C 1028.7 hPa North 16.7 km/h   59% 0 mm 0.0 W/m2 CLR
16:36 21.3 °C 13.2 °C 1028.7 hPa NNW 16.7 km/h 16.7 km/h 60% 0 mm 0.0 W/m2 CLR
16:41 21.3 °C 12.9 °C 1028.7 hPa NNW 16.7 km/h   59% 0 mm 0.0 W/m2 CLR
16:46 21.3 °C 12.9 °C 1028.7 hPa NNW 16.7 km/h 16.7 km/h 59% 0 mm 0.0 W/m2 CLR
16:51 21.3 °C 13.2 °C 1028.7 hPa SW 16.7 km/h   60% 0 mm 0.0 W/m2 CLR
16:56 21.2 °C 13.4 °C 1028.7 hPa SW 16.7 km/h   61% 0 mm 0.0 W/m2 CLR
17:01 21.2 °C 12.8 °C 1028.7 hPa SW 16.7 km/h   59% 0 mm 0.0 W/m2 CLR
17:06 21.1 °C 13 °C 1028.7 hPa West 16.7 km/h 16.7 km/h 60% 0 mm 0.0 W/m2 CLR
17:11 20.9 °C 12.6 °C 1028.7 hPa West 16.7 km/h   59% 0 mm 0.0 W/m2 CLR
17:16 20.7 °C 12.7 °C 1028.7 hPa West 16.7 km/h   60% 0 mm 0.0 W/m2 CLR
17:22 20.6 °C 12.8 °C 1028.7 hPa West 16.7 km/h   61% 0 mm 0.0 W/m2 CLR
17:27 20.2 °C 12.7 °C 1028.7 hPa West 16.7 km/h   62% 0 mm 0.0 W/m2 CLR
17:32 20 °C 12.5 °C 1028.7 hPa West 16.7 km/h   62% 0 mm 0.0 W/m2 CLR
17:37 19.7 °C 12.5 °C 1028.7 hPa West 16.7 km/h   63% 0 mm 0.0 W/m2 CLR
17:42 19.4 °C 12.4 °C 1028.7 hPa West 16.7 km/h   64% 0 mm 0.0 W/m2 CLR
17:47 19.2 °C 12.2 °C 1028.7 hPa West 16.7 km/h   64% 0 mm 0.0 W/m2 CLR
17:52 18.8 °C 12.1 °C 1029 hPa West 16.7 km/h   65% 0 mm 0.0 W/m2 CLR
17:57 18.6 °C 12.1 °C 1029 hPa West 16.7 km/h   66% 0 mm 0.0 W/m2 CLR
18:02 18.3 °C 12.1 °C 1029 hPa West 16.7 km/h   67% 0 mm 0.0 W/m2
18:07 18.1 °C 11.9 °C 1028.7 hPa West 16.7 km/h   67% 0 mm 0.0 W/m2
18:12 17.9 °C 11.9 °C 1029 hPa West 16.7 km/h   68% 0 mm 0.0 W/m2
18:17 17.8 °C 11.8 °C 1028.7 hPa West 16.7 km/h   68% 0 mm 0.0 W/m2
18:22 17.6 °C 11.8 °C 1029 hPa West 16.7 km/h   69% 0 mm 0.0 W/m2
18:27 17.4 °C 11.7 °C 1029 hPa West 16.7 km/h   69% 0 mm 0.0 W/m2
18:32 17.2 °C 11.7 °C 1029 hPa West 16.7 km/h   70% 0 mm 0.0 W/m2
18:37 17.1 °C 11.6 °C 1029 hPa West 16.7 km/h   70% 0 mm 0.0 W/m2
18:43 16.9 °C 11.6 °C 1029 hPa West 16.7 km/h   71% 0 mm 0.0 W/m2
18:48 16.8 °C 11.7 °C 1029 hPa West 16.7 km/h   72% 0 mm 0.0 W/m2
18:53 16.7 °C 11.6 °C 1029 hPa West 16.7 km/h   72% 0 mm 0.0 W/m2
18:58 16.6 °C 11.7 °C 1029 hPa West 16.7 km/h   73% 0 mm 0.0 W/m2
19:03 16.4 °C 11.6 °C 1029 hPa West 16.7 km/h   73% 0 mm 0.0 W/m2
19:08 16.3 °C 11.6 °C 1029 hPa West 16.7 km/h   74% 0 mm 0.0 W/m2
19:13 16.4 °C 11.7 °C 1029 hPa West 16.7 km/h   74% 0 mm 0.0 W/m2
19:18 16.3 °C 11.7 °C 1029 hPa West 16.7 km/h   74% 0 mm 0.0 W/m2
19:23 16.2 °C 11.6 °C 1029 hPa West 16.7 km/h   74% 0 mm 0.0 W/m2
19:28 16.1 °C 11.7 °C 1029 hPa West 16.7 km/h   75% 0 mm 0.0 W/m2
19:33 16 °C 11.6 °C 1029 hPa West 16.7 km/h   75% 0 mm 0.0 W/m2
19:38 15.8 °C 11.6 °C 1029 hPa West 16.7 km/h   76% 0 mm 0.0 W/m2
19:44 15.7 °C 11.5 °C 1029 hPa West 16.7 km/h   76% 0 mm 0.0 W/m2
19:48 15.6 °C 11.6 °C 1029 hPa West 16.7 km/h   77% 0 mm 0.0 W/m2
19:54 15.6 °C 11.6 °C 1029 hPa West 16.7 km/h   77% 0 mm 0.0 W/m2
19:59 15.4 °C 11.4 °C 1029 hPa West 16.7 km/h   77% 0 mm 0.0 W/m2
20:04 15.4 °C 11.4 °C 1029 hPa West 16.7 km/h   77% 0 mm 0.0 W/m2
20:09 15.4 °C 11.6 °C 1029 hPa West 16.7 km/h   78% 0 mm 0.0 W/m2
20:14 15.4 °C 11.6 °C 1029 hPa West 16.7 km/h   78% 0 mm 0.0 W/m2
20:19 15.3 °C 11.5 °C 1029 hPa West 16.7 km/h   78% 0 mm 0.0 W/m2
20:24 15.3 °C 11.4 °C 1029 hPa West 16.7 km/h   78% 0 mm 0.0 W/m2
20:29 15.3 °C 11.4 °C 1029 hPa West 16.7 km/h   78% 0 mm 0.0 W/m2
20:34 15.3 °C 11.4 °C 1029 hPa West 16.7 km/h   78% 0 mm 0.0 W/m2
20:39 15.2 °C 11.4 °C 1029 hPa West 16.7 km/h   78% 0 mm 0.0 W/m2
20:44 15.3 °C 11.4 °C 1029 hPa West 16.7 km/h   78% 0 mm 0.0 W/m2
20:49 15.2 °C 11.4 °C 1029 hPa West 16.7 km/h   78% 0 mm 0.0 W/m2
20:54 15.2 °C 11.4 °C 1029 hPa West 16.7 km/h   78% 0 mm 0.0 W/m2
21:00 15.2 °C 11.4 °C 1029 hPa West 16.7 km/h   78% 0 mm 0.0 W/m2
21:05 15.2 °C 11.3 °C 1029 hPa West 16.7 km/h   78% 0 mm 0.0 W/m2
21:10 15.2 °C 11.3 °C 1029 hPa West 16.7 km/h   78% 0 mm 0.0 W/m2
21:15 15.2 °C 11.3 °C 1029 hPa West 16.7 km/h   78% 0 mm 0.0 W/m2
21:20 15.2 °C 11.6 °C 1029 hPa West 16.7 km/h   79% 0 mm 0.0 W/m2
21:25 15.1 °C 11.5 °C 1029 hPa West 16.7 km/h   79% 0 mm 0.0 W/m2
21:30 15.1 °C 11.5 °C 1029 hPa West 16.7 km/h   79% 0 mm 0.0 W/m2
21:35 15.1 °C 11.4 °C 1029 hPa West 16.7 km/h   79% 0 mm 0.0 W/m2
21:41 15.1 °C 11.4 °C 1029 hPa West 16.7 km/h   79% 0 mm 0.0 W/m2
21:46 15.1 °C 11.4 °C 1029 hPa West 16.7 km/h   79% 0 mm 0.0 W/m2
21:51 15 °C 11.4 °C 1029 hPa West 16.7 km/h   79% 0 mm 0.0 W/m2
21:56 14.9 °C 11.3 °C 1029 hPa West 16.7 km/h   79% 0 mm 0.0 W/m2
22:01 14.8 °C 11.2 °C 1029 hPa West 16.7 km/h   79% 0 mm 0.0 W/m2
22:06 14.7 °C 11.1 °C 1028.7 hPa West 16.7 km/h   79% 0 mm 0.0 W/m2
22:11 14.6 °C 11.2 °C 1028.7 hPa West 16.7 km/h   80% 0 mm 0.0 W/m2
22:16 14.5 °C 11.1 °C 1028.7 hPa West 16.7 km/h   80% 0 mm 0.0 W/m2
22:21 14.4 °C 11 °C 1028.7 hPa West 16.7 km/h   80% 0 mm 0.0 W/m2
22:26 14.2 °C 11 °C 1028.7 hPa West 16.7 km/h   81% 0 mm 0.0 W/m2
22:31 14.2 °C 10.9 °C 1028.7 hPa West 16.7 km/h   81% 0 mm 0.0 W/m2
22:36 14.2 °C 11 °C 1028.7 hPa West 16.7 km/h   81% 0 mm 0.0 W/m2
22:41 14.2 °C 11 °C 1028.7 hPa West 16.7 km/h   81% 0 mm 0.0 W/m2
22:46 14.2 °C 10.8 °C 1028.7 hPa West 16.7 km/h   80% 0 mm 0.0 W/m2
22:51 14.2 °C 10.8 °C 1028.7 hPa West 16.7 km/h   80% 0 mm 0.0 W/m2
22:56 14.2 °C 10.8 °C 1028.7 hPa West 16.7 km/h   80% 0 mm 0.0 W/m2
23:01 14 °C 10.6 °C 1028.7 hPa West 16.7 km/h   80% 0 mm 0.0 W/m2
23:07 13.9 °C 10.7 °C 1028.7 hPa West 16.7 km/h   81% 0 mm 0.0 W/m2
23:12 13.8 °C 10.8 °C 1028.7 hPa West 16.7 km/h   82% 0 mm 0.0 W/m2
23:17 13.7 °C 10.7 °C 1028.3 hPa West 16.7 km/h   82% 0 mm 0.0 W/m2
23:22 13.6 °C 10.6 °C 1028.3 hPa West 16.7 km/h   82% 0 mm 0.0 W/m2
23:27 13.4 °C 10.6 °C 1028.3 hPa West 16.7 km/h   83% 0 mm 0.0 W/m2
23:32 13.1 °C 10.3 °C 1028.3 hPa West 16.7 km/h   83% 0 mm 0.0 W/m2
23:37 12.9 °C 10.3 °C 1028.3 hPa West 16.7 km/h   84% 0 mm 0.0 W/m2
23:42 12.9 °C 10.3 °C 1028.3 hPa West 16.7 km/h   84% 0 mm 0.0 W/m2
23:47 12.9 °C 10.3 °C 1028.3 hPa North 16.7 km/h   84% 0 mm 0.0 W/m2
23:52 12.9 °C 10.3 °C 1028 hPa North 16.7 km/h   84% 0 mm 0.0 W/m2
23:57 12.9 °C 10.3 °C 1028 hPa North 16.7 km/h   84% 0 mm 0.0 W/m2
Piedmont Bend
Compliments of Weather Underground - 4 mb